Time;durP1;ratioP1;P1;durP2;ratioP2;P2;SDS_P1;SDS_P2;PMS_P1;PMS_P2;Temp;Humidity;BMP_temperature;BMP_pressure;BME280_temperature;BME280_humidity;BME280_pressure;Samples;Min_cycle;Max_cycle;Signal;HPM_P1;HPM_P2
2023/05/25 00:00:14;;;;;;;1.90;1.17;;;21.10;54.10;;;;;;5055844;28;20226;-44
2023/05/25 00:02:45;;;;;;;3.03;1.80;;;21.10;54.10;;;;;;5068088;28;20729;-44
2023/05/25 00:05:17;;;;;;;2.43;1.40;;;21.10;54.10;;;;;;5053600;28;20628;-44
2023/05/25 00:07:47;;;;;;;2.50;1.40;;;21.10;54.10;;;;;;5050941;28;20194;-44
2023/05/25 00:10:17;;;;;;;2.00;1.33;;;21.10;54.10;;;;;;5061947;28;20198;-44
2023/05/25 00:12:47;;;;;;;1.97;1.70;;;21.10;54.10;;;;;;5069858;28;20198;-44
2023/05/25 00:15:19;;;;;;;2.30;1.60;;;21.00;54.10;;;;;;5048351;28;20694;-44
2023/05/25 00:17:53;;;;;;;1.87;1.57;;;21.10;54.10;;;;;;5069147;28;20780;-45
2023/05/25 00:20:22;;;;;;;2.53;1.63;;;21.10;54.20;;;;;;5062086;28;20201;-44
2023/05/25 00:23:04;;;;;;;4.27;1.80;;;21.10;54.20;;;;;;5050512;28;20308;-45
2023/05/25 00:25:35;;;;;;;1.50;1.17;;;21.00;54.20;;;;;;5058324;28;20208;-45
2023/05/25 00:28:05;;;;;;;2.23;1.10;;;21.00;54.10;;;;;;5058305;28;20202;-44
2023/05/25 00:30:33;;;;;;;2.23;1.43;;;21.10;54.20;;;;;;5057866;28;20222;-45
2023/05/25 00:33:06;;;;;;;2.50;1.50;;;21.00;54.10;;;;;;5056250;28;20274;-45
2023/05/25 00:35:37;;;;;;;2.27;1.70;;;21.00;54.20;;;;;;5048786;28;20306;-44
2023/05/25 00:38:13;;;;;;;2.03;1.47;;;21.00;54.20;;;;;;5066057;28;20213;-45
2023/05/25 00:40:45;;;;;;;2.00;1.40;;;21.00;54.30;;;;;;5068297;28;20205;-44
2023/05/25 00:43:15;;;;;;;1.83;1.47;;;21.00;54.20;;;;;;5062148;28;20288;-44
2023/05/25 00:45:53;;;;;;;1.90;1.30;;;21.00;54.30;;;;;;5054798;28;20206;-44
2023/05/25 00:48:24;;;;;;;2.10;1.50;;;21.00;54.20;;;;;;5053766;28;20209;-44
2023/05/25 00:50:58;;;;;;;2.80;1.60;;;20.90;54.20;;;;;;5050104;28;20190;-44
2023/05/25 00:53:36;;;;;;;2.10;1.40;;;20.90;54.20;;;;;;5049850;28;20643;-44
2023/05/25 00:56:19;;;;;;;2.43;1.57;;;20.90;54.20;;;;;;5053965;28;20497;-45
2023/05/25 00:58:53;;;;;;;1.27;1.17;;;20.90;54.20;;;;;;5060251;28;20201;-45
2023/05/25 01:01:27;;;;;;;1.73;1.33;;;20.90;54.20;;;;;;5034546;28;20189;-45
2023/05/25 01:03:58;;;;;;;1.60;1.40;;;20.90;54.30;;;;;;5048264;28;20207;-44
2023/05/25 01:06:33;;;;;;;3.03;1.47;;;20.90;54.30;;;;;;5058293;28;20198;-44
2023/05/25 01:09:07;;;;;;;2.53;1.60;;;20.90;54.30;;;;;;5054711;28;20225;-44
2023/05/25 01:11:42;;;;;;;2.70;1.60;;;20.90;54.30;;;;;;5051085;28;20213;-45
2023/05/25 01:14:23;;;;;;;2.73;1.47;;;20.90;54.30;;;;;;5059911;28;20384;-44
2023/05/25 01:16:55;;;;;;;1.67;1.20;;;20.90;54.30;;;;;;5054293;28;20198;-49
2023/05/25 01:19:26;;;;;;;2.30;1.20;;;20.90;54.30;;;;;;5052023;28;20205;-44
2023/05/25 01:22:21;;;;;;;1.50;1.40;;;20.80;54.30;;;;;;5068305;28;20280;-44
2023/05/25 01:25:01;;;;;;;2.60;1.30;;;20.80;54.30;;;;;;5051669;28;20585;-44
2023/05/25 01:27:59;;;;;;;3.73;1.50;;;20.80;54.40;;;;;;5061182;28;20316;-44
2023/05/25 01:30:31;;;;;;;3.13;1.60;;;20.80;54.30;;;;;;5047988;28;20540;-44
2023/05/25 01:33:08;;;;;;;2.17;1.40;;;20.80;54.40;;;;;;5050911;28;20205;-44
2023/05/25 01:35:40;;;;;;;2.33;1.50;;;20.80;54.40;;;;;;5064590;28;20217;-44
2023/05/25 01:38:10;;;;;;;2.17;1.37;;;20.80;54.30;;;;;;5048597;28;20225;-44
2023/05/25 01:40:41;;;;;;;3.17;1.50;;;20.80;54.40;;;;;;5058905;28;20256;-45
2023/05/25 01:43:13;;;;;;;1.87;1.43;;;20.80;54.40;;;;;;5060677;28;20267;-45
2023/05/25 01:45:42;;;;;;;2.17;1.50;;;20.80;54.40;;;;;;5060640;28;20201;-44
2023/05/25 01:48:36;;;;;;;1.70;1.30;;;20.80;54.40;;;;;;5057843;28;20298;-44
2023/05/25 01:51:44;;;;;;;2.07;1.50;;;20.80;54.40;;;;;;5057537;28;20365;-44
2023/05/25 01:54:20;;;;;;;2.30;1.20;;;20.80;54.40;;;;;;5060158;28;20276;-44
2023/05/25 01:56:51;;;;;;;1.87;1.30;;;20.80;54.40;;;;;;5042650;28;20193;-44
2023/05/25 01:59:22;;;;;;;2.43;1.60;;;20.80;54.50;;;;;;5031097;28;20259;-44
2023/05/25 02:01:53;;;;;;;2.63;1.37;;;20.70;55.10;;;;;;5056444;28;20191;-44
2023/05/25 02:04:22;;;;;;;1.93;1.70;;;20.70;54.50;;;;;;5029661;28;20201;-44
2023/05/25 02:06:52;;;;;;;2.10;1.43;;;20.70;54.40;;;;;;5065295;28;20265;-44
2023/05/25 02:09:21;;;;;;;2.67;1.40;;;20.70;54.40;;;;;;5057640;28;20225;-44
2023/05/25 02:11:49;;;;;;;2.23;1.73;;;20.70;54.50;;;;;;5045727;28;20221;-44
2023/05/25 02:14:19;;;;;;;2.33;1.47;;;20.70;54.40;;;;;;5056771;28;20217;-44
2023/05/25 02:16:47;;;;;;;1.50;1.30;;;20.70;54.40;;;;;;5066148;28;20228;-45
2023/05/25 02:19:22;;;;;;;2.93;1.50;;;20.70;54.50;;;;;;5061638;28;20204;-44
2023/05/25 02:21:51;;;;;;;1.50;1.40;;;20.70;54.50;;;;;;5064658;28;20679;-44
2023/05/25 02:24:22;;;;;;;2.37;1.40;;;20.70;54.50;;;;;;5047429;28;20621;-44
2023/05/25 02:26:54;;;;;;;2.93;1.67;;;20.70;54.50;;;;;;5049223;28;20229;-45
2023/05/25 02:29:24;;;;;;;2.97;1.37;;;20.70;54.50;;;;;;5057480;28;20295;-45
2023/05/25 02:31:56;;;;;;;2.40;1.60;;;20.60;54.40;;;;;;5061715;28;20206;-45
2023/05/25 02:34:25;;;;;;;2.30;1.50;;;20.60;54.40;;;;;;5053397;28;20226;-44
2023/05/25 02:36:55;;;;;;;3.27;1.60;;;20.60;54.50;;;;;;5024152;28;20285;-44
2023/05/25 02:39:26;;;;;;;2.47;1.10;;;20.60;54.50;;;;;;5041522;28;20198;-45
2023/05/25 02:41:56;;;;;;;2.73;1.73;;;20.60;54.50;;;;;;5031760;28;20216;-45
2023/05/25 02:44:27;;;;;;;2.80;1.40;;;20.60;54.50;;;;;;5049137;28;20202;-45
2023/05/25 02:46:59;;;;;;;1.50;1.23;;;20.60;54.50;;;;;;5050785;28;20619;-44
2023/05/25 02:49:28;;;;;;;1.93;1.27;;;20.60;54.50;;;;;;5044675;28;20199;-45
2023/05/25 02:52:06;;;;;;;3.17;1.40;;;20.60;54.50;;;;;;5042988;28;20656;-45
2023/05/25 02:54:35;;;;;;;3.73;1.57;;;20.60;54.50;;;;;;5051478;28;20218;-44
2023/05/25 02:57:07;;;;;;;2.27;1.57;;;20.60;54.50;;;;;;5051953;28;20194;-44
2023/05/25 02:59:39;;;;;;;2.00;1.33;;;20.60;54.50;;;;;;5049136;28;20206;-44
2023/05/25 03:02:09;;;;;;;1.77;1.30;;;20.60;54.50;;;;;;5049423;28;20702;-43
2023/05/25 03:04:40;;;;;;;3.13;1.40;;;20.60;54.50;;;;;;5034476;28;20639;-43
2023/05/25 03:07:09;;;;;;;2.13;1.20;;;20.60;54.50;;;;;;5049654;28;20194;-43
2023/05/25 03:09:39;;;;;;;2.27;1.37;;;20.60;54.50;;;;;;5051943;28;20217;-43
2023/05/25 03:12:13;;;;;;;3.70;2.00;;;20.60;54.50;;;;;;5045288;28;20209;-43
2023/05/25 03:14:43;;;;;;;1.97;1.40;;;20.60;54.50;;;;;;5051605;28;20680;-43
2023/05/25 03:17:15;;;;;;;2.13;1.20;;;20.60;54.50;;;;;;5050830;28;20198;-43
2023/05/25 03:19:46;;;;;;;2.83;1.30;;;20.60;54.50;;;;;;5046890;28;20676;-43
2023/05/25 03:22:15;;;;;;;1.67;1.57;;;20.50;54.50;;;;;;5042900;28;20199;-44
2023/05/25 03:24:49;;;;;;;3.00;1.60;;;20.50;54.50;;;;;;5044217;28;20627;-44
2023/05/25 03:27:23;;;;;;;1.77;1.40;;;20.50;54.50;;;;;;5050943;28;20292;-44
2023/05/25 03:29:54;;;;;;;2.00;1.57;;;20.50;54.50;;;;;;5051503;28;20206;-44
2023/05/25 03:32:26;;;;;;;2.60;1.60;;;20.50;54.50;;;;;;5048379;28;20457;-44
2023/05/25 03:34:56;;;;;;;1.47;1.30;;;20.50;54.50;;;;;;5054465;28;20528;-44
2023/05/25 03:37:27;;;;;;;1.40;1.30;;;20.50;54.50;;;;;;5053724;28;20198;-44
2023/05/25 03:39:59;;;;;;;2.77;1.57;;;20.50;54.50;;;;;;5058308;28;20235;-43
2023/05/25 03:42:29;;;;;;;2.10;1.40;;;20.50;54.50;;;;;;5069610;28;20194;-43
2023/05/25 03:45:00;;;;;;;2.77;1.40;;;20.50;54.50;;;;;;5070507;28;20190;-43
2023/05/25 03:47:31;;;;;;;2.07;1.63;;;20.50;54.60;;;;;;5068480;28;20651;-43
2023/05/25 03:50:01;;;;;;;2.43;1.30;;;20.40;54.50;;;;;;5072490;28;20210;-43
2023/05/25 03:52:35;;;;;;;1.80;1.57;;;20.50;54.50;;;;;;5077029;28;20212;-43
2023/05/25 03:55:04;;;;;;;1.63;1.30;;;20.50;54.50;;;;;;5079113;28;20529;-43
2023/05/25 03:57:37;;;;;;;3.60;1.40;;;20.50;54.50;;;;;;5066659;28;20190;-44
2023/05/25 04:00:07;;;;;;;1.43;1.27;;;20.40;54.50;;;;;;5074539;28;20201;-43
2023/05/25 04:02:40;;;;;;;3.73;1.63;;;20.40;54.50;;;;;;5070821;28;20807;-43
2023/05/25 04:05:12;;;;;;;2.50;1.47;;;20.40;54.50;;;;;;5069297;28;20202;-44
2023/05/25 04:07:44;;;;;;;3.03;1.30;;;20.40;54.50;;;;;;5065220;28;20209;-43
2023/05/25 04:10:16;;;;;;;2.10;1.43;;;20.40;54.50;;;;;;5066657;28;20193;-45
2023/05/25 04:12:48;;;;;;;1.73;1.20;;;20.40;54.50;;;;;;5070764;28;20201;-44
2023/05/25 04:15:20;;;;;;;2.23;1.67;;;20.40;54.50;;;;;;5070788;28;20213;-45
2023/05/25 04:17:51;;;;;;;1.77;1.30;;;20.40;54.60;;;;;;5068401;28;20210;-44
2023/05/25 04:20:22;;;;;;;2.43;1.43;;;20.40;54.60;;;;;;5068079;28;20251;-43
2023/05/25 04:22:56;;;;;;;1.83;1.30;;;20.40;54.60;;;;;;5059725;28;20201;-44
2023/05/25 04:25:27;;;;;;;1.97;1.50;;;20.40;54.60;;;;;;5068687;28;20206;-44
2023/05/25 04:28:00;;;;;;;2.90;1.50;;;20.40;54.60;;;;;;5070747;28;20206;-43
2023/05/25 04:30:30;;;;;;;2.43;1.50;;;20.40;54.60;;;;;;5069136;28;20182;-43
2023/05/25 04:33:01;;;;;;;3.10;1.60;;;20.40;54.60;;;;;;5070043;28;20196;-43
2023/05/25 04:35:30;;;;;;;1.83;1.40;;;20.30;54.60;;;;;;5059563;28;20234;-44
2023/05/25 04:38:01;;;;;;;3.00;1.30;;;20.30;54.60;;;;;;5048798;28;20241;-44
2023/05/25 04:40:34;;;;;;;1.80;1.10;;;20.30;54.50;;;;;;5049730;28;20205;-43
2023/05/25 04:43:02;;;;;;;1.90;1.50;;;20.40;54.50;;;;;;5022656;28;20229;-43
2023/05/25 04:45:35;;;;;;;2.47;1.50;;;20.30;54.50;;;;;;5046867;28;20306;-43
2023/05/25 04:48:08;;;;;;;2.67;1.33;;;20.30;54.60;;;;;;5045106;28;20213;-43
2023/05/25 04:50:42;;;;;;;2.37;1.63;;;20.30;54.50;;;;;;5060674;28;20264;-45
2023/05/25 04:53:12;;;;;;;3.20;1.50;;;20.30;54.60;;;;;;5050186;28;20194;-45
2023/05/25 04:55:53;;;;;;;1.93;1.40;;;20.30;54.60;;;;;;5048416;28;20210;-43
2023/05/25 04:58:35;;;;;;;2.97;1.47;;;20.30;54.60;;;;;;5049488;28;20198;-43
2023/05/25 05:01:03;;;;;;;1.73;1.17;;;20.30;54.60;;;;;;5055379;28;20210;-43
2023/05/25 05:03:34;;;;;;;3.13;1.47;;;20.30;54.60;;;;;;5032269;28;20253;-44
2023/05/25 05:06:07;;;;;;;1.50;1.40;;;20.30;54.60;;;;;;5046088;28;20305;-42
2023/05/25 05:08:38;;;;;;;2.43;1.47;;;20.40;54.60;;;;;;5041257;28;20217;-43
2023/05/25 05:11:09;;;;;;;3.27;1.60;;;20.30;54.60;;;;;;5050516;28;20213;-44
2023/05/25 05:13:45;;;;;;;2.17;1.43;;;20.30;54.70;;;;;;5049112;28;20585;-44
2023/05/25 05:16:15;;;;;;;1.83;1.40;;;20.30;54.70;;;;;;5046241;28;20586;-43
2023/05/25 05:18:47;;;;;;;1.97;1.30;;;20.30;54.80;;;;;;5053463;28;20193;-43
2023/05/25 05:21:15;;;;;;;3.30;1.70;;;20.30;54.70;;;;;;5050168;28;20283;-43
2023/05/25 05:23:55;;;;;;;3.03;1.80;;;20.30;54.60;;;;;;5047131;28;20210;-43
2023/05/25 05:26:26;;;;;;;2.27;1.63;;;20.30;54.60;;;;;;5044954;28;20419;-43
2023/05/25 05:28:59;;;;;;;2.10;1.20;;;20.30;54.60;;;;;;5045451;28;20198;-42
2023/05/25 05:31:30;;;;;;;2.33;1.43;;;20.30;54.70;;;;;;5049983;28;20194;-44
2023/05/25 05:33:59;;;;;;;3.20;1.30;;;20.30;54.70;;;;;;5052627;28;20269;-44
2023/05/25 05:36:29;;;;;;;3.73;1.83;;;20.30;54.60;;;;;;5065203;28;20245;-42
2023/05/25 05:39:05;;;;;;;3.47;1.27;;;20.30;54.60;;;;;;5065495;28;20205;-43
2023/05/25 05:41:37;;;;;;;2.63;1.70;;;20.30;55.00;;;;;;5069475;28;20197;-43
2023/05/25 05:44:08;;;;;;;3.43;1.57;;;20.30;55.20;;;;;;5067187;28;20194;-43
2023/05/25 05:46:38;;;;;;;2.30;1.40;;;20.30;55.20;;;;;;5048913;28;20729;-44
2023/05/25 05:49:10;;;;;;;4.27;1.53;;;20.30;55.00;;;;;;5068732;28;20579;-43
2023/05/25 05:51:40;;;;;;;2.63;1.30;;;20.30;55.00;;;;;;5069189;28;20547;-44
2023/05/25 05:54:11;;;;;;;1.87;1.53;;;20.30;54.90;;;;;;5066013;28;20196;-43
2023/05/25 05:56:41;;;;;;;4.10;1.60;;;20.30;54.90;;;;;;5068225;28;20340;-43
2023/05/25 05:59:12;;;;;;;3.10;1.40;;;20.30;54.80;;;;;;5065811;28;20682;-44
2023/05/25 06:01:44;;;;;;;2.37;1.50;;;20.30;54.80;;;;;;5069800;28;20196;-43
2023/05/25 06:04:17;;;;;;;2.97;1.60;;;20.30;54.80;;;;;;5066400;28;20204;-45
2023/05/25 06:06:48;;;;;;;5.33;1.60;;;20.30;54.80;;;;;;5050948;28;20198;-43
2023/05/25 06:09:18;;;;;;;5.47;1.80;;;20.30;54.80;;;;;;5071592;28;20204;-43
2023/05/25 06:11:48;;;;;;;2.33;1.60;;;20.30;54.70;;;;;;5073381;28;20228;-43
2023/05/25 06:14:20;;;;;;;3.60;1.60;;;20.30;54.70;;;;;;5059406;28;20206;-44
2023/05/25 06:16:53;;;;;;;5.70;1.80;;;20.30;54.80;;;;;;5068910;28;20611;-44
2023/05/25 06:19:25;;;;;;;5.07;1.90;;;20.30;54.80;;;;;;5071419;28;20525;-44
2023/05/25 06:21:55;;;;;;;5.23;1.80;;;20.30;54.80;;;;;;5048489;28;20205;-45
2023/05/25 06:24:26;;;;;;;4.47;1.83;;;20.30;54.90;;;;;;5059279;28;20214;-43
2023/05/25 06:27:01;;;;;;;3.67;1.77;;;20.30;54.80;;;;;;5073545;28;20628;-44
2023/05/25 06:29:33;;;;;;;6.67;1.93;;;20.30;54.90;;;;;;5073311;28;20528;-43
2023/05/25 06:32:02;;;;;;;4.27;1.93;;;20.30;55.20;;;;;;5074156;28;20674;-45
2023/05/25 06:34:31;;;;;;;8.93;3.20;;;20.30;55.40;;;;;;5064467;28;20310;-44
2023/05/25 06:37:05;;;;;;;7.03;2.20;;;20.40;55.50;;;;;;5057546;28;20606;-43
2023/05/25 06:39:39;;;;;;;3.03;2.00;;;20.30;55.50;;;;;;5071842;28;20207;-44
2023/05/25 06:42:10;;;;;;;6.80;2.03;;;20.30;55.40;;;;;;5059063;28;20194;-44
2023/05/25 06:44:42;;;;;;;6.33;1.83;;;20.30;55.40;;;;;;5071666;28;20189;-44
2023/05/25 06:47:12;;;;;;;20.27;6.30;;;20.30;55.40;;;;;;5070608;28;20294;-43
2023/05/25 06:49:42;;;;;;;27.00;7.23;;;20.40;56.00;;;;;;5067893;28;20307;-43
2023/05/25 06:52:10;;;;;;;16.27;5.17;;;20.40;56.10;;;;;;5069764;28;20192;-45
2023/05/25 06:54:42;;;;;;;18.20;5.80;;;20.40;56.40;;;;;;5071935;28;20627;-44
2023/05/25 06:57:12;;;;;;;19.83;6.27;;;20.40;56.40;;;;;;5069707;28;20209;-44
2023/05/25 06:59:44;;;;;;;15.93;5.50;;;20.40;56.20;;;;;;5072540;28;20198;-44
2023/05/25 07:02:16;;;;;;;18.67;5.40;;;20.40;56.20;;;;;;5067242;28;20202;-44
2023/05/25 07:04:46;;;;;;;11.50;5.07;;;20.40;56.70;;;;;;5072263;28;20612;-44
2023/05/25 07:07:23;;;;;;;13.10;4.37;;;20.40;56.00;;;;;;5077303;28;20213;-44
2023/05/25 07:09:53;;;;;;;15.37;4.50;;;20.40;55.90;;;;;;5072351;28;20216;-44
2023/05/25 07:12:23;;;;;;;10.73;4.27;;;20.40;55.80;;;;;;5065549;28;20217;-43
2023/05/25 07:14:56;;;;;;;12.57;4.80;;;20.40;55.60;;;;;;5067417;28;20645;-44
2023/05/25 07:17:27;;;;;;;10.50;4.13;;;20.40;55.60;;;;;;5050103;28;20209;-45
2023/05/25 07:19:57;;;;;;;11.43;4.17;;;20.40;55.60;;;;;;5071877;28;20197;-44
2023/05/25 07:22:31;;;;;;;10.30;3.40;;;20.40;55.60;;;;;;5039249;28;20682;-44
2023/05/25 07:25:01;;;;;;;9.90;3.80;;;20.40;55.50;;;;;;5069378;28;20227;-44
2023/05/25 07:27:36;;;;;;;9.97;3.40;;;20.40;55.50;;;;;;5071301;28;20270;-44
2023/05/25 07:30:08;;;;;;;11.07;3.57;;;20.40;55.50;;;;;;5071050;28;20206;-44
2023/05/25 07:32:45;;;;;;;7.70;3.33;;;20.40;55.40;;;;;;5071828;28;20225;-44
2023/05/25 07:35:16;;;;;;;10.83;3.40;;;20.40;55.40;;;;;;5070793;28;20241;-44
2023/05/25 07:38:03;;;;;;;7.70;2.90;;;20.40;55.40;;;;;;5068527;28;20232;-43
2023/05/25 07:40:33;;;;;;;7.93;3.17;;;20.40;55.40;;;;;;5071774;28;20190;-44
2023/05/25 07:43:05;;;;;;;10.67;3.37;;;20.40;55.40;;;;;;5071646;28;20201;-44
2023/05/25 07:45:39;;;;;;;5.70;2.50;;;20.40;55.30;;;;;;5070053;28;20197;-44
2023/05/25 07:48:09;;;;;;;7.70;2.77;;;20.50;55.40;;;;;;5066027;28;20224;-44
2023/05/25 07:50:42;;;;;;;5.30;2.40;;;20.40;55.30;;;;;;5071853;28;20208;-44
2023/05/25 07:53:13;;;;;;;5.67;2.37;;;20.50;55.40;;;;;;5071766;28;20530;-44
2023/05/25 07:55:39;;;;;;;6.97;2.60;;;20.40;55.30;;;;;;5053398;28;20560;-44
2023/05/25 07:58:11;;;;;;;5.80;2.63;;;20.50;55.40;;;;;;5068934;28;20210;-44
2023/05/25 08:00:41;;;;;;;5.40;2.33;;;20.50;55.40;;;;;;5068496;28;20659;-43
2023/05/25 08:03:13;;;;;;;5.13;2.00;;;20.50;56.00;;;;;;5053195;28;20205;-44
2023/05/25 08:05:44;;;;;;;4.80;2.23;;;20.50;55.40;;;;;;5067700;28;20213;-43
2023/05/25 08:08:14;;;;;;;4.63;2.13;;;20.50;55.30;;;;;;5068583;28;20202;-42
2023/05/25 08:10:45;;;;;;;6.30;2.40;;;20.50;55.30;;;;;;5065236;28;20274;-43
2023/05/25 08:13:15;;;;;;;4.53;2.27;;;20.50;55.20;;;;;;5068539;28;20597;-44
2023/05/25 08:15:42;;;;;;;4.20;2.03;;;20.50;55.20;;;;;;5070484;28;20532;-44
2023/05/25 08:18:18;;;;;;;4.27;2.00;;;20.60;55.20;;;;;;5073892;28;20285;-44
2023/05/25 08:20:53;;;;;;;6.07;2.30;;;20.60;55.10;;;;;;5077534;28;20569;-44
2023/05/25 08:23:25;;;;;;;3.00;1.93;;;20.60;55.10;;;;;;5061636;28;20228;-44
2023/05/25 08:25:57;;;;;;;5.40;2.07;;;20.60;55.00;;;;;;5067447;28;20732;-45
2023/05/25 08:28:40;;;;;;;5.60;2.20;;;20.60;55.00;;;;;;5069984;28;20193;-44
2023/05/25 08:31:11;;;;;;;3.93;1.80;;;20.60;55.00;;;;;;5070102;28;20643;-44
2023/05/25 08:33:40;;;;;;;5.80;2.30;;;20.60;54.90;;;;;;5070064;28;20244;-43
2023/05/25 08:36:11;;;;;;;3.50;2.20;;;20.60;54.90;;;;;;5065301;28;20252;-44
2023/05/25 08:38:42;;;;;;;3.30;1.97;;;20.60;54.90;;;;;;5070621;28;20193;-44
2023/05/25 08:41:14;;;;;;;2.63;1.73;;;20.60;54.90;;;;;;5070453;28;20224;-43
2023/05/25 08:43:44;;;;;;;4.77;2.10;;;20.60;54.90;;;;;;5070028;28;20664;-43
2023/05/25 08:46:29;;;;;;;3.20;1.70;;;20.60;54.90;;;;;;5067018;28;20634;-44
2023/05/25 08:49:14;;;;;;;4.30;2.17;;;20.60;55.40;;;;;;5068343;28;20248;-44
2023/05/25 08:51:50;;;;;;;3.93;1.90;;;20.60;54.80;;;;;;5070423;28;20537;-44
2023/05/25 08:54:51;;;;;;;3.20;1.77;;;20.60;54.80;;;;;;5067132;28;20219;-44
2023/05/25 08:57:49;;;;;;;3.13;1.87;;;20.60;54.90;;;;;;5068637;28;20716;-43
2023/05/25 09:00:30;;;;;;;3.83;1.90;;;20.70;54.90;;;;;;5065716;28;20212;-42
2023/05/25 09:03:10;;;;;;;2.07;1.73;;;20.60;54.90;;;;;;5069943;28;20411;-44
2023/05/25 09:05:41;;;;;;;2.63;1.60;;;20.60;54.90;;;;;;5060077;28;20201;-45
2023/05/25 09:08:11;;;;;;;4.63;2.10;;;20.60;54.80;;;;;;5049178;28;20214;-45
2023/05/25 09:10:55;;;;;;;3.07;1.80;;;20.60;54.90;;;;;;5054266;28;20588;-43
2023/05/25 09:13:27;;;;;;;3.10;1.80;;;20.70;54.90;;;;;;5050638;28;20217;-43
2023/05/25 09:15:57;;;;;;;3.30;1.40;;;20.70;54.90;;;;;;5071269;28;20213;-43
2023/05/25 09:18:27;;;;;;;3.60;1.63;;;20.70;54.80;;;;;;5051885;28;20210;-43
2023/05/25 09:20:56;;;;;;;5.00;2.43;;;20.70;54.90;;;;;;5070643;28;20208;-43
2023/05/25 09:23:27;;;;;;;1.90;1.57;;;20.70;54.80;;;;;;5072063;28;20217;-44
2023/05/25 09:25:55;;;;;;;2.53;1.93;;;20.80;54.90;;;;;;5065245;28;20545;-44
2023/05/25 09:28:26;;;;;;;2.17;1.67;;;20.80;54.80;;;;;;5067208;28;20206;-45
2023/05/25 09:30:55;;;;;;;5.03;1.80;;;20.80;54.80;;;;;;5069410;28;20554;-43
2023/05/25 09:33:23;;;;;;;4.87;2.03;;;20.80;54.80;;;;;;5052281;28;20214;-43
2023/05/25 09:35:54;;;;;;;2.27;1.67;;;20.70;54.70;;;;;;5068812;28;20611;-44
2023/05/25 09:38:26;;;;;;;2.53;1.40;;;20.70;54.70;;;;;;5066496;28;20202;-44
2023/05/25 09:40:57;;;;;;;3.90;1.77;;;20.80;54.70;;;;;;5073859;28;20695;-45
2023/05/25 09:43:27;;;;;;;2.27;1.60;;;20.80;54.70;;;;;;5070582;28;20198;-43
2023/05/25 09:46:10;;;;;;;4.20;1.93;;;20.80;54.70;;;;;;5070449;28;20202;-43
2023/05/25 09:48:42;;;;;;;3.13;1.60;;;20.80;54.70;;;;;;5047796;28;20228;-43
2023/05/25 09:51:11;;;;;;;4.20;1.97;;;20.80;54.70;;;;;;5069302;28;20219;-43
2023/05/25 09:53:43;;;;;;;3.40;2.27;;;20.80;55.30;;;;;;5052992;28;20206;-43
2023/05/25 09:56:13;;;;;;;2.77;1.80;;;20.80;54.70;;;;;;5048839;28;20217;-43
2023/05/25 09:58:45;;;;;;;3.90;1.77;;;20.80;54.60;;;;;;5051741;28;20200;-43
2023/05/25 10:01:18;;;;;;;2.83;1.57;;;20.80;54.60;;;;;;5049961;28;20210;-43
2023/05/25 10:03:49;;;;;;;2.37;1.80;;;20.80;54.60;;;;;;5068908;28;20190;-43
2023/05/25 10:06:32;;;;;;;2.40;1.60;;;20.90;54.70;;;;;;5068409;28;20213;-43
2023/05/25 10:09:03;;;;;;;3.10;1.63;;;20.80;54.70;;;;;;5069499;28;20316;-43
2023/05/25 10:11:37;;;;;;;2.97;1.80;;;20.90;54.70;;;;;;5052729;28;20194;-43
2023/05/25 10:14:08;;;;;;;4.80;2.13;;;20.80;54.50;;;;;;5047459;28;20244;-43
2023/05/25 10:16:41;;;;;;;3.57;2.40;;;20.90;54.60;;;;;;5068276;28;20204;-43
2023/05/25 10:19:40;;;;;;;3.60;1.67;;;20.90;54.60;;;;;;5061089;28;20272;-43
2023/05/25 10:22:50;;;;;;;3.53;1.80;;;20.90;54.50;;;;;;5063607;28;20659;-43
2023/05/25 10:25:26;;;;;;;2.60;1.67;;;20.90;54.40;;;;;;5062325;28;20201;-43
2023/05/25 10:28:03;;;;;;;2.50;1.60;;;20.90;54.50;;;;;;5069038;28;20545;-43
2023/05/25 10:30:40;;;;;;;4.13;1.83;;;20.90;54.50;;;;;;5069306;28;20190;-44
2023/05/25 10:33:23;;;;;;;2.77;1.93;;;20.90;54.60;;;;;;5055746;28;20214;-44
2023/05/25 10:35:56;;;;;;;2.93;1.83;;;20.90;54.50;;;;;;5052555;28;20883;-44
2023/05/25 10:38:43;;;;;;;4.03;1.90;;;20.90;54.50;;;;;;5065612;28;20233;-44
2023/05/25 10:41:15;;;;;;;4.40;2.30;;;20.90;54.50;;;;;;5070364;28;20194;-45
2023/05/25 10:43:44;;;;;;;3.90;2.23;;;21.00;54.60;;;;;;5069008;28;20197;-45
2023/05/25 10:46:16;;;;;;;3.73;2.13;;;20.90;54.50;;;;;;5047493;28;20202;-43
2023/05/25 10:48:48;;;;;;;3.47;1.93;;;20.90;54.40;;;;;;5065807;28;20279;-44
2023/05/25 10:51:20;;;;;;;5.40;2.37;;;21.00;54.50;;;;;;5050900;28;20186;-43
2023/05/25 10:54:02;;;;;;;4.53;2.03;;;21.00;54.40;;;;;;5071381;28;20204;-43
2023/05/25 10:56:30;;;;;;;2.57;1.77;;;20.90;54.40;;;;;;5042333;28;20571;-44
2023/05/25 10:59:02;;;;;;;3.97;2.20;;;20.90;54.40;;;;;;5055018;28;20197;-45
2023/05/25 11:01:48;;;;;;;2.57;1.63;;;21.00;54.50;;;;;;5070230;28;20206;-44
2023/05/25 11:04:17;;;;;;;2.60;1.60;;;21.00;54.40;;;;;;5069234;28;20527;-44
2023/05/25 11:06:52;;;;;;;3.77;2.30;;;21.00;54.60;;;;;;5071634;28;20205;-43
2023/05/25 11:09:32;;;;;;;4.27;2.03;;;21.00;54.70;;;;;;5063193;28;20623;-44
2023/05/25 11:12:21;;;;;;;3.10;1.93;;;21.00;55.40;;;;;;5066767;28;20201;-43
2023/05/25 11:15:19;;;;;;;4.37;2.00;;;21.00;54.80;;;;;;5056313;28;20205;-44
2023/05/25 11:18:01;;;;;;;2.80;1.70;;;21.00;54.80;;;;;;5063270;28;20214;-44
2023/05/25 11:20:29;;;;;;;5.03;2.00;;;21.00;54.80;;;;;;5070422;28;21658;-43
2023/05/25 11:23:21;;;;;;;3.73;2.10;;;21.00;54.80;;;;;;5058012;28;20189;-44
2023/05/25 11:26:06;;;;;;;2.67;1.70;;;21.00;54.70;;;;;;5059697;28;20200;-44
2023/05/25 11:28:45;;;;;;;4.30;2.13;;;21.00;54.70;;;;;;5053539;28;20618;-44
2023/05/25 11:31:18;;;;;;;3.57;2.00;;;21.00;54.70;;;;;;5071814;28;20197;-44
2023/05/25 11:33:50;;;;;;;5.33;1.97;;;21.10;54.80;;;;;;5053002;28;20264;-43
2023/05/25 11:36:30;;;;;;;3.47;2.00;;;21.10;54.70;;;;;;5049551;28;20225;-44
2023/05/25 11:39:05;;;;;;;4.07;1.90;;;21.10;54.60;;;;;;5057404;28;20198;-43
2023/05/25 11:42:03;;;;;;;3.83;2.20;;;21.10;54.60;;;;;;5056951;28;20193;-43
2023/05/25 11:44:36;;;;;;;4.10;2.20;;;21.10;54.60;;;;;;5074159;28;20198;-45
2023/05/25 11:47:13;;;;;;;5.67;1.93;;;21.10;54.50;;;;;;5075244;28;20658;-43
2023/05/25 11:49:48;;;;;;;3.70;2.20;;;21.10;54.50;;;;;;5068387;28;20709;-43
2023/05/25 11:52:34;;;;;;;6.53;2.30;;;21.10;54.60;;;;;;5059675;28;20703;-43
2023/05/25 11:55:16;;;;;;;5.53;2.40;;;21.10;54.40;;;;;;5070850;28;20224;-43
2023/05/25 11:57:43;;;;;;;7.83;2.50;;;21.10;54.40;;;;;;5065397;28;20688;-43
2023/05/25 12:00:22;;;;;;;4.77;2.40;;;21.10;54.10;;;;;;5066670;28;20273;-43
2023/05/25 12:02:55;;;;;;;5.20;2.60;;;21.20;53.90;;;;;;5072032;28;20750;-43
2023/05/25 12:05:24;;;;;;;4.77;2.70;;;21.10;53.70;;;;;;5041300;28;20689;-43
2023/05/25 12:07:55;;;;;;;4.90;2.13;;;21.20;53.70;;;;;;5059820;28;20194;-44
2023/05/25 12:10:23;;;;;;;6.67;2.60;;;21.20;53.70;;;;;;5061811;28;20448;-43
2023/05/25 12:12:57;;;;;;;4.17;2.57;;;21.20;53.70;;;;;;5071670;28;20210;-42
2023/05/25 12:15:28;;;;;;;4.63;2.63;;;21.20;53.60;;;;;;5038144;28;20217;-42
2023/05/25 12:18:01;;;;;;;3.50;2.33;;;21.20;53.60;;;;;;5053272;28;20209;-43
2023/05/25 12:20:31;;;;;;;3.57;2.60;;;21.20;53.50;;;;;;5069944;28;20651;-43
2023/05/25 12:23:00;;;;;;;5.00;2.50;;;21.20;53.50;;;;;;5062158;28;20218;-43
2023/05/25 12:25:33;;;;;;;5.23;2.90;;;21.20;53.50;;;;;;5067659;28;20217;-43
2023/05/25 12:28:17;;;;;;;5.77;2.30;;;21.20;53.70;;;;;;5052660;28;20198;-44
2023/05/25 12:30:46;;;;;;;5.63;2.70;;;21.20;53.80;;;;;;5053342;28;20228;-43
2023/05/25 12:33:23;;;;;;;6.20;2.57;;;21.30;54.50;;;;;;5070203;28;20198;-43
2023/05/25 12:35:54;;;;;;;5.47;2.73;;;21.30;53.90;;;;;;5074541;28;20228;-44
2023/05/25 12:38:25;;;;;;;6.10;2.83;;;21.20;53.80;;;;;;5072074;28;20201;-44
2023/05/25 12:41:08;;;;;;;5.57;2.50;;;21.20;53.80;;;;;;5058607;28;20225;-45
2023/05/25 12:43:42;;;;;;;6.07;2.40;;;21.30;53.80;;;;;;5070231;28;20600;-45
2023/05/25 12:46:26;;;;;;;4.27;2.27;;;21.30;53.80;;;;;;5048934;28;20193;-44
2023/05/25 12:48:56;;;;;;;5.93;2.40;;;21.30;54.00;;;;;;5067589;28;20206;-44
2023/05/25 12:51:24;;;;;;;3.83;2.30;;;21.30;54.00;;;;;;5054335;28;20196;-44
2023/05/25 12:53:57;;;;;;;4.17;2.40;;;21.30;54.10;;;;;;5069740;28;20190;-43
2023/05/25 12:56:26;;;;;;;3.87;2.40;;;21.30;54.10;;;;;;5066305;28;20372;-44
2023/05/25 12:59:14;;;;;;;5.30;2.53;;;21.30;54.00;;;;;;5057564;28;20248;-44
2023/05/25 13:01:45;;;;;;;6.70;2.40;;;21.40;54.00;;;;;;5051556;28;20206;-45
2023/05/25 13:04:18;;;;;;;4.70;2.67;;;21.30;54.00;;;;;;5069174;28;20220;-44
2023/05/25 13:06:52;;;;;;;4.37;2.47;;;21.30;54.00;;;;;;5071828;28;20734;-44
2023/05/25 13:09:26;;;;;;;4.77;2.47;;;21.40;54.00;;;;;;5069540;28;20198;-44
2023/05/25 13:11:58;;;;;;;5.07;2.30;;;21.40;54.00;;;;;;5072947;28;20221;-44
2023/05/25 13:14:28;;;;;;;4.30;2.13;;;21.40;54.00;;;;;;5062665;28;20209;-44
2023/05/25 13:16:58;;;;;;;4.77;2.40;;;21.40;53.90;;;;;;5067854;28;20205;-42